sensor_id;sensor_type;location;lat;lon;timestamp;pressure;altitude;pressure_sealevel;temperature
8362;BMP180;4218;48.326;14.304;2022-12-05T00:00:12;98058.00;;;1.50
8362;BMP180;4218;48.326;14.304;2022-12-05T00:02:37;98067.00;;;1.40
8362;BMP180;4218;48.326;14.304;2022-12-05T00:05:03;98079.00;;;1.60
8362;BMP180;4218;48.326;14.304;2022-12-05T00:07:29;98065.00;;;1.70
8362;BMP180;4218;48.326;14.304;2022-12-05T00:09:54;98075.00;;;1.50
8362;BMP180;4218;48.326;14.304;2022-12-05T00:12:20;98075.00;;;1.40
8362;BMP180;4218;48.326;14.304;2022-12-05T00:14:45;98081.00;;;1.40
8362;BMP180;4218;48.326;14.304;2022-12-05T00:17:10;98088.00;;;1.40
8362;BMP180;4218;48.326;14.304;2022-12-05T00:19:36;98082.00;;;1.40
8362;BMP180;4218;48.326;14.304;2022-12-05T00:22:01;98092.00;;;1.40
8362;BMP180;4218;48.326;14.304;2022-12-05T00:24:27;98099.00;;;1.50
8362;BMP180;4218;48.326;14.304;2022-12-05T00:26:52;98117.00;;;1.50
8362;BMP180;4218;48.326;14.304;2022-12-05T00:29:18;98110.00;;;1.30
8362;BMP180;4218;48.326;14.304;2022-12-05T00:31:43;98121.00;;;1.10
8362;BMP180;4218;48.326;14.304;2022-12-05T00:34:09;98123.00;;;1.20
8362;BMP180;4218;48.326;14.304;2022-12-05T00:36:35;98118.00;;;1.30
8362;BMP180;4218;48.326;14.304;2022-12-05T00:39:04;98125.00;;;1.00
8362;BMP180;4218;48.326;14.304;2022-12-05T00:41:30;98120.00;;;0.90
8362;BMP180;4218;48.326;14.304;2022-12-05T00:43:58;98123.00;;;1.10
8362;BMP180;4218;48.326;14.304;2022-12-05T00:46:26;98131.00;;;1.00
8362;BMP180;4218;48.326;14.304;2022-12-05T00:48:53;98140.00;;;0.90
8362;BMP180;4218;48.326;14.304;2022-12-05T00:51:21;98149.00;;;1.00
8362;BMP180;4218;48.326;14.304;2022-12-05T00:53:47;98133.00;;;0.80
8362;BMP180;4218;48.326;14.304;2022-12-05T00:56:15;98129.00;;;0.70
8362;BMP180;4218;48.326;14.304;2022-12-05T00:58:40;98155.00;;;0.90
8362;BMP180;4218;48.326;14.304;2022-12-05T01:01:14;98152.00;;;0.90
8362;BMP180;4218;48.326;14.304;2022-12-05T01:03:41;98140.00;;;1.00
8362;BMP180;4218;48.326;14.304;2022-12-05T01:06:07;98139.00;;;1.00
8362;BMP180;4218;48.326;14.304;2022-12-05T01:08:34;98154.00;;;1.00
8362;BMP180;4218;48.326;14.304;2022-12-05T01:10:59;98158.00;;;1.10
8362;BMP180;4218;48.326;14.304;2022-12-05T01:13:25;98163.00;;;1.00
8362;BMP180;4218;48.326;14.304;2022-12-05T01:15:51;98157.00;;;0.90
8362;BMP180;4218;48.326;14.304;2022-12-05T01:18:17;98168.00;;;0.80
8362;BMP180;4218;48.326;14.304;2022-12-05T01:20:43;98167.00;;;0.90
8362;BMP180;4218;48.326;14.304;2022-12-05T01:23:09;98176.00;;;0.90
8362;BMP180;4218;48.326;14.304;2022-12-05T01:25:38;98181.00;;;1.20
8362;BMP180;4218;48.326;14.304;2022-12-05T01:28:04;98187.00;;;1.20
8362;BMP180;4218;48.326;14.304;2022-12-05T01:30:29;98187.00;;;1.20
8362;BMP180;4218;48.326;14.304;2022-12-05T01:32:55;98184.00;;;1.20
8362;BMP180;4218;48.326;14.304;2022-12-05T01:35:21;98187.00;;;1.30
8362;BMP180;4218;48.326;14.304;2022-12-05T01:37:46;98184.00;;;1.30
8362;BMP180;4218;48.326;14.304;2022-12-05T01:40:12;98187.00;;;1.40
8362;BMP180;4218;48.326;14.304;2022-12-05T01:42:38;98187.00;;;1.50
8362;BMP180;4218;48.326;14.304;2022-12-05T01:45:12;98201.00;;;1.60
8362;BMP180;4218;48.326;14.304;2022-12-05T01:47:38;98195.00;;;1.70
8362;BMP180;4218;48.326;14.304;2022-12-05T01:50:04;98200.00;;;1.80
8362;BMP180;4218;48.326;14.304;2022-12-05T01:52:30;98189.00;;;1.90
8362;BMP180;4218;48.326;14.304;2022-12-05T01:55:02;98212.00;;;2.00
8362;BMP180;4218;48.326;14.304;2022-12-05T01:57:29;98200.00;;;2.00
8362;BMP180;4218;48.326;14.304;2022-12-05T01:59:59;98205.00;;;2.00
8362;BMP180;4218;48.326;14.304;2022-12-05T02:02:27;98215.00;;;2.10
8362;BMP180;4218;48.326;14.304;2022-12-05T02:05:05;98214.00;;;2.30
8362;BMP180;4218;48.326;14.304;2022-12-05T02:07:32;98222.00;;;2.40
8362;BMP180;4218;48.326;14.304;2022-12-05T02:09:59;98225.00;;;2.70
8362;BMP180;4218;48.326;14.304;2022-12-05T02:12:24;98223.00;;;2.80
8362;BMP180;4218;48.326;14.304;2022-12-05T02:16:00;98232.00;;;2.90
8362;BMP180;4218;48.326;14.304;2022-12-05T02:20:46;98230.00;;;2.90
8362;BMP180;4218;48.326;14.304;2022-12-05T02:26:18;98229.00;;;2.70
8362;BMP180;4218;48.326;14.304;2022-12-05T02:31:58;98201.00;;;2.80
8362;BMP180;4218;48.326;14.304;2022-12-05T02:34:33;98203.00;;;2.90
8362;BMP180;4218;48.326;14.304;2022-12-05T02:37:11;98204.00;;;3.00
8362;BMP180;4218;48.326;14.304;2022-12-05T02:40:04;98199.00;;;3.00
8362;BMP180;4218;48.326;14.304;2022-12-05T02:45:14;98204.00;;;3.10
8362;BMP180;4218;48.326;14.304;2022-12-05T02:47:44;98203.00;;;3.10
8362;BMP180;4218;48.326;14.304;2022-12-05T02:50:15;98204.00;;;3.10
8362;BMP180;4218;48.326;14.304;2022-12-05T02:52:44;98198.00;;;3.10
8362;BMP180;4218;48.326;14.304;2022-12-05T02:55:13;98207.00;;;3.20
8362;BMP180;4218;48.326;14.304;2022-12-05T02:57:43;98214.00;;;3.20
8362;BMP180;4218;48.326;14.304;2022-12-05T03:00:09;98209.00;;;3.20
8362;BMP180;4218;48.326;14.304;2022-12-05T03:02:38;98210.00;;;3.20
8362;BMP180;4218;48.326;14.304;2022-12-05T03:05:18;98214.00;;;3.20
8362;BMP180;4218;48.326;14.304;2022-12-05T03:07:45;98212.00;;;3.20
8362;BMP180;4218;48.326;14.304;2022-12-05T03:10:13;98205.00;;;3.10
8362;BMP180;4218;48.326;14.304;2022-12-05T03:12:43;98209.00;;;3.00
8362;BMP180;4218;48.326;14.304;2022-12-05T03:15:16;98214.00;;;3.10
8362;BMP180;4218;48.326;14.304;2022-12-05T03:17:50;98222.00;;;3.20
8362;BMP180;4218;48.326;14.304;2022-12-05T03:22:56;98222.00;;;3.30
8362;BMP180;4218;48.326;14.304;2022-12-05T03:25:34;98232.00;;;3.20
8362;BMP180;4218;48.326;14.304;2022-12-05T03:28:12;98223.00;;;3.30
8362;BMP180;4218;48.326;14.304;2022-12-05T03:30:40;98234.00;;;3.20
8362;BMP180;4218;48.326;14.304;2022-12-05T03:33:12;98248.00;;;3.20
8362;BMP180;4218;48.326;14.304;2022-12-05T03:35:44;98247.00;;;3.30
8362;BMP180;4218;48.326;14.304;2022-12-05T03:38:25;98244.00;;;3.30
8362;BMP180;4218;48.326;14.304;2022-12-05T03:41:20;98256.00;;;3.40
8362;BMP180;4218;48.326;14.304;2022-12-05T03:44:12;98261.00;;;3.30
8362;BMP180;4218;48.326;14.304;2022-12-05T03:46:59;98264.00;;;3.40
8362;BMP180;4218;48.326;14.304;2022-12-05T03:49:36;98265.00;;;3.40
8362;BMP180;4218;48.326;14.304;2022-12-05T03:54:37;98259.00;;;3.50
8362;BMP180;4218;48.326;14.304;2022-12-05T03:57:09;98254.00;;;3.40
8362;BMP180;4218;48.326;14.304;2022-12-05T03:59:40;98262.00;;;3.30
8362;BMP180;4218;48.326;14.304;2022-12-05T04:02:12;98263.00;;;3.30
8362;BMP180;4218;48.326;14.304;2022-12-05T04:04:46;98263.00;;;3.40
8362;BMP180;4218;48.326;14.304;2022-12-05T04:07:13;98279.00;;;3.60
8362;BMP180;4218;48.326;14.304;2022-12-05T04:09:49;98278.00;;;3.60
8362;BMP180;4218;48.326;14.304;2022-12-05T04:12:36;98285.00;;;3.60
8362;BMP180;4218;48.326;14.304;2022-12-05T04:15:15;98293.00;;;3.70
8362;BMP180;4218;48.326;14.304;2022-12-05T04:17:49;98297.00;;;3.80
8362;BMP180;4218;48.326;14.304;2022-12-05T04:20:19;98296.00;;;3.80
8362;BMP180;4218;48.326;14.304;2022-12-05T04:23:05;98293.00;;;3.80
8362;BMP180;4218;48.326;14.304;2022-12-05T04:26:09;98299.00;;;3.70
8362;BMP180;4218;48.326;14.304;2022-12-05T04:28:41;98290.00;;;3.80
8362;BMP180;4218;48.326;14.304;2022-12-05T04:31:17;98305.00;;;3.70
8362;BMP180;4218;48.326;14.304;2022-12-05T04:33:55;98287.00;;;3.70
8362;BMP180;4218;48.326;14.304;2022-12-05T04:36:30;98293.00;;;3.70
8362;BMP180;4218;48.326;14.304;2022-12-05T04:39:01;98299.00;;;3.80
8362;BMP180;4218;48.326;14.304;2022-12-05T04:41:30;98293.00;;;3.80
8362;BMP180;4218;48.326;14.304;2022-12-05T04:43:58;98297.00;;;3.80
8362;BMP180;4218;48.326;14.304;2022-12-05T04:46:25;98303.00;;;3.80
8362;BMP180;4218;48.326;14.304;2022-12-05T04:48:59;98303.00;;;3.90
8362;BMP180;4218;48.326;14.304;2022-12-05T04:51:29;98308.00;;;3.80
8362;BMP180;4218;48.326;14.304;2022-12-05T04:54:01;98297.00;;;3.90
8362;BMP180;4218;48.326;14.304;2022-12-05T04:56:29;98314.00;;;3.90
8362;BMP180;4218;48.326;14.304;2022-12-05T04:58:55;98303.00;;;3.80
8362;BMP180;4218;48.326;14.304;2022-12-05T05:01:27;98317.00;;;3.70
8362;BMP180;4218;48.326;14.304;2022-12-05T05:04:16;98309.00;;;3.80
8362;BMP180;4218;48.326;14.304;2022-12-05T05:06:43;98307.00;;;3.80
8362;BMP180;4218;48.326;14.304;2022-12-05T05:09:09;98318.00;;;3.80
8362;BMP180;4218;48.326;14.304;2022-12-05T05:11:35;98323.00;;;3.90
8362;BMP180;4218;48.326;14.304;2022-12-05T05:14:02;98323.00;;;3.80
8362;BMP180;4218;48.326;14.304;2022-12-05T05:16:35;98327.00;;;3.90
8362;BMP180;4218;48.326;14.304;2022-12-05T05:19:01;98320.00;;;3.90
8362;BMP180;4218;48.326;14.304;2022-12-05T05:21:29;98330.00;;;4.00
8362;BMP180;4218;48.326;14.304;2022-12-05T05:23:56;98325.00;;;3.90
8362;BMP180;4218;48.326;14.304;2022-12-05T05:26:22;98315.00;;;3.90
8362;BMP180;4218;48.326;14.304;2022-12-05T05:28:49;98330.00;;;3.90
8362;BMP180;4218;48.326;14.304;2022-12-05T05:31:16;98324.00;;;3.90
8362;BMP180;4218;48.326;14.304;2022-12-05T05:33:42;98337.00;;;3.90
8362;BMP180;4218;48.326;14.304;2022-12-05T05:36:12;98341.00;;;3.70
8362;BMP180;4218;48.326;14.304;2022-12-05T05:38:42;98337.00;;;3.60
8362;BMP180;4218;48.326;14.304;2022-12-05T05:41:20;98339.00;;;3.70
8362;BMP180;4218;48.326;14.304;2022-12-05T05:43:47;98354.00;;;3.70
8362;BMP180;4218;48.326;14.304;2022-12-05T05:46:13;98352.00;;;3.80
8362;BMP180;4218;48.326;14.304;2022-12-05T05:48:39;98355.00;;;3.60
8362;BMP180;4218;48.326;14.304;2022-12-05T05:51:06;98359.00;;;3.60
8362;BMP180;4218;48.326;14.304;2022-12-05T05:53:32;98354.00;;;3.80
8362;BMP180;4218;48.326;14.304;2022-12-05T05:56:09;98365.00;;;3.80
8362;BMP180;4218;48.326;14.304;2022-12-05T05:58:35;98378.00;;;3.80
8362;BMP180;4218;48.326;14.304;2022-12-05T06:01:12;98361.00;;;3.80
8362;BMP180;4218;48.326;14.304;2022-12-05T06:03:38;98363.00;;;3.80
8362;BMP180;4218;48.326;14.304;2022-12-05T06:06:07;98352.00;;;3.80
8362;BMP180;4218;48.326;14.304;2022-12-05T06:08:34;98366.00;;;3.60
8362;BMP180;4218;48.326;14.304;2022-12-05T06:11:04;98372.00;;;3.60
8362;BMP180;4218;48.326;14.304;2022-12-05T06:13:30;98372.00;;;3.60
8362;BMP180;4218;48.326;14.304;2022-12-05T06:15:55;98365.00;;;3.70
8362;BMP180;4218;48.326;14.304;2022-12-05T06:18:21;98376.00;;;3.60
8362;BMP180;4218;48.326;14.304;2022-12-05T06:20:54;98391.00;;;3.60
8362;BMP180;4218;48.326;14.304;2022-12-05T06:23:20;98401.00;;;3.70
8362;BMP180;4218;48.326;14.304;2022-12-05T06:25:47;98400.00;;;3.70
8362;BMP180;4218;48.326;14.304;2022-12-05T06:28:13;98404.00;;;3.70
8362;BMP180;4218;48.326;14.304;2022-12-05T06:30:38;98424.00;;;3.70
8362;BMP180;4218;48.326;14.304;2022-12-05T06:33:04;98417.00;;;3.60
8362;BMP180;4218;48.326;14.304;2022-12-05T06:35:29;98426.00;;;3.60
8362;BMP180;4218;48.326;14.304;2022-12-05T06:37:55;98412.00;;;3.60
8362;BMP180;4218;48.326;14.304;2022-12-05T06:40:20;98449.00;;;3.70
8362;BMP180;4218;48.326;14.304;2022-12-05T06:42:46;98454.00;;;3.70
8362;BMP180;4218;48.326;14.304;2022-12-05T06:45:11;98441.00;;;3.60
8362;BMP180;4218;48.326;14.304;2022-12-05T06:47:36;98448.00;;;3.70
8362;BMP180;4218;48.326;14.304;2022-12-05T06:50:02;98463.00;;;3.70
8362;BMP180;4218;48.326;14.304;2022-12-05T06:52:28;98463.00;;;3.70
8362;BMP180;4218;48.326;14.304;2022-12-05T06:54:54;98461.00;;;3.80
8362;BMP180;4218;48.326;14.304;2022-12-05T06:57:19;98469.00;;;3.70
8362;BMP180;4218;48.326;14.304;2022-12-05T06:59:45;98473.00;;;3.60
8362;BMP180;4218;48.326;14.304;2022-12-05T07:02:11;98476.00;;;3.60
8362;BMP180;4218;48.326;14.304;2022-12-05T07:04:37;98474.00;;;3.70
8362;BMP180;4218;48.326;14.304;2022-12-05T07:07:02;98470.00;;;3.60
8362;BMP180;4218;48.326;14.304;2022-12-05T07:09:28;98468.00;;;3.60
8362;BMP180;4218;48.326;14.304;2022-12-05T07:12:14;98468.00;;;3.60
8362;BMP180;4218;48.326;14.304;2022-12-05T07:14:39;98471.00;;;3.60
8362;BMP180;4218;48.326;14.304;2022-12-05T07:17:05;98487.00;;;3.60
8362;BMP180;4218;48.326;14.304;2022-12-05T07:19:30;98494.00;;;3.60
8362;BMP180;4218;48.326;14.304;2022-12-05T07:21:56;98494.00;;;3.60
8362;BMP180;4218;48.326;14.304;2022-12-05T07:24:21;98489.00;;;3.70
8362;BMP180;4218;48.326;14.304;2022-12-05T07:26:46;98502.00;;;3.70
8362;BMP180;4218;48.326;14.304;2022-12-05T07:29:12;98496.00;;;3.80
8362;BMP180;4218;48.326;14.304;2022-12-05T07:31:37;98484.00;;;3.80
8362;BMP180;4218;48.326;14.304;2022-12-05T07:34:02;98507.00;;;3.70
8362;BMP180;4218;48.326;14.304;2022-12-05T07:36:29;98514.00;;;3.70
8362;BMP180;4218;48.326;14.304;2022-12-05T07:38:56;98520.00;;;3.70
8362;BMP180;4218;48.326;14.304;2022-12-05T07:41:29;98518.00;;;3.70
8362;BMP180;4218;48.326;14.304;2022-12-05T07:43:57;98521.00;;;3.70
8362;BMP180;4218;48.326;14.304;2022-12-05T07:46:25;98516.00;;;3.70
8362;BMP180;4218;48.326;14.304;2022-12-05T07:48:51;98519.00;;;3.70
8362;BMP180;4218;48.326;14.304;2022-12-05T07:51:17;98535.00;;;3.70
8362;BMP180;4218;48.326;14.304;2022-12-05T07:53:43;98526.00;;;3.80
8362;BMP180;4218;48.326;14.304;2022-12-05T07:56:11;98534.00;;;3.90
8362;BMP180;4218;48.326;14.304;2022-12-05T07:58:48;98523.00;;;3.90
8362;BMP180;4218;48.326;14.304;2022-12-05T08:01:21;98519.00;;;3.80
8362;BMP180;4218;48.326;14.304;2022-12-05T08:03:48;98521.00;;;3.90
8362;BMP180;4218;48.326;14.304;2022-12-05T08:06:16;98525.00;;;3.90
8362;BMP180;4218;48.326;14.304;2022-12-05T08:08:42;98535.00;;;4.00
8362;BMP180;4218;48.326;14.304;2022-12-05T08:11:13;98543.00;;;4.00
8362;BMP180;4218;48.326;14.304;2022-12-05T08:13:39;98535.00;;;4.00
8362;BMP180;4218;48.326;14.304;2022-12-05T08:16:08;98531.00;;;3.90
8362;BMP180;4218;48.326;14.304;2022-12-05T08:18:34;98546.00;;;3.90
8362;BMP180;4218;48.326;14.304;2022-12-05T08:21:10;98541.00;;;3.90
8362;BMP180;4218;48.326;14.304;2022-12-05T08:23:37;98551.00;;;4.00
8362;BMP180;4218;48.326;14.304;2022-12-05T08:26:11;98553.00;;;4.10
8362;BMP180;4218;48.326;14.304;2022-12-05T08:28:37;98553.00;;;4.10
8362;BMP180;4218;48.326;14.304;2022-12-05T08:31:08;98554.00;;;4.10
8362;BMP180;4218;48.326;14.304;2022-12-05T08:33:34;98542.00;;;4.00
8362;BMP180;4218;48.326;14.304;2022-12-05T08:36:01;98542.00;;;4.00
8362;BMP180;4218;48.326;14.304;2022-12-05T08:38:26;98546.00;;;4.10
8362;BMP180;4218;48.326;14.304;2022-12-05T08:40:52;98559.00;;;4.10
8362;BMP180;4218;48.326;14.304;2022-12-05T08:43:17;98563.00;;;4.10
8362;BMP180;4218;48.326;14.304;2022-12-05T08:45:52;98556.00;;;4.00
8362;BMP180;4218;48.326;14.304;2022-12-05T08:48:18;98563.00;;;4.10
8362;BMP180;4218;48.326;14.304;2022-12-05T08:50:43;98562.00;;;4.30
8362;BMP180;4218;48.326;14.304;2022-12-05T08:53:09;98578.00;;;4.40
8362;BMP180;4218;48.326;14.304;2022-12-05T08:55:35;98583.00;;;4.30
8362;BMP180;4218;48.326;14.304;2022-12-05T08:58:00;98570.00;;;4.30
8362;BMP180;4218;48.326;14.304;2022-12-05T09:00:26;98578.00;;;4.10
8362;BMP180;4218;48.326;14.304;2022-12-05T09:02:51;98574.00;;;4.20
8362;BMP180;4218;48.326;14.304;2022-12-05T09:05:17;98570.00;;;4.20
8362;BMP180;4218;48.326;14.304;2022-12-05T09:07:42;98578.00;;;4.20
8362;BMP180;4218;48.326;14.304;2022-12-05T09:10:08;98568.00;;;4.10
8362;BMP180;4218;48.326;14.304;2022-12-05T09:12:35;98564.00;;;4.20
8362;BMP180;4218;48.326;14.304;2022-12-05T09:15:01;98564.00;;;4.20
8362;BMP180;4218;48.326;14.304;2022-12-05T09:17:26;98561.00;;;4.30
8362;BMP180;4218;48.326;14.304;2022-12-05T09:19:52;98569.00;;;4.40
8362;BMP180;4218;48.326;14.304;2022-12-05T09:22:17;98559.00;;;4.40
8362;BMP180;4218;48.326;14.304;2022-12-05T09:24:43;98550.00;;;4.30
8362;BMP180;4218;48.326;14.304;2022-12-05T09:27:08;98563.00;;;4.40
8362;BMP180;4218;48.326;14.304;2022-12-05T09:29:33;98563.00;;;4.60
8362;BMP180;4218;48.326;14.304;2022-12-05T09:31:59;98567.00;;;4.60
8362;BMP180;4218;48.326;14.304;2022-12-05T09:34:25;98569.00;;;4.60
8362;BMP180;4218;48.326;14.304;2022-12-05T09:36:51;98568.00;;;4.60
8362;BMP180;4218;48.326;14.304;2022-12-05T09:39:17;98565.00;;;4.50
8362;BMP180;4218;48.326;14.304;2022-12-05T09:42:02;98582.00;;;4.50
8362;BMP180;4218;48.326;14.304;2022-12-05T09:50:19;98578.00;;;4.40
8362;BMP180;4218;48.326;14.304;2022-12-05T09:53:01;98562.00;;;4.40
8362;BMP180;4218;48.326;14.304;2022-12-05T09:58:52;98558.00;;;4.70
8362;BMP180;4218;48.326;14.304;2022-12-05T10:06:53;98559.00;;;4.70
8362;BMP180;4218;48.326;14.304;2022-12-05T10:09:38;98564.00;;;4.80
8362;BMP180;4218;48.326;14.304;2022-12-05T10:12:10;98557.00;;;4.90
8362;BMP180;4218;48.326;14.304;2022-12-05T10:17:53;98551.00;;;4.90
8362;BMP180;4218;48.326;14.304;2022-12-05T10:20:25;98564.00;;;4.80
8362;BMP180;4218;48.326;14.304;2022-12-05T10:22:57;98572.00;;;4.80
8362;BMP180;4218;48.326;14.304;2022-12-05T10:25:25;98568.00;;;4.70
8362;BMP180;4218;48.326;14.304;2022-12-05T10:27:54;98574.00;;;4.60
8362;BMP180;4218;48.326;14.304;2022-12-05T10:30:24;98574.00;;;4.60
8362;BMP180;4218;48.326;14.304;2022-12-05T10:33:02;98553.00;;;4.60
8362;BMP180;4218;48.326;14.304;2022-12-05T10:35:35;98566.00;;;4.50
8362;BMP180;4218;48.326;14.304;2022-12-05T10:38:06;98558.00;;;4.50
8362;BMP180;4218;48.326;14.304;2022-12-05T10:40:37;98552.00;;;4.50
8362;BMP180;4218;48.326;14.304;2022-12-05T10:43:05;98548.00;;;4.40
8362;BMP180;4218;48.326;14.304;2022-12-05T10:45:30;98553.00;;;4.40
8362;BMP180;4218;48.326;14.304;2022-12-05T10:47:56;98561.00;;;4.40
8362;BMP180;4218;48.326;14.304;2022-12-05T10:50:29;98546.00;;;4.30
8362;BMP180;4218;48.326;14.304;2022-12-05T10:52:56;98543.00;;;4.20
8362;BMP180;4218;48.326;14.304;2022-12-05T10:55:27;98546.00;;;4.20
8362;BMP180;4218;48.326;14.304;2022-12-05T10:58:15;98549.00;;;4.20
8362;BMP180;4218;48.326;14.304;2022-12-05T11:00:47;98552.00;;;4.30
8362;BMP180;4218;48.326;14.304;2022-12-05T11:05:52;98537.00;;;4.10
8362;BMP180;4218;48.326;14.304;2022-12-05T11:08:24;98543.00;;;4.20
8362;BMP180;4218;48.326;14.304;2022-12-05T11:11:02;98552.00;;;4.20
8362;BMP180;4218;48.326;14.304;2022-12-05T11:13:28;98547.00;;;4.10
8362;BMP180;4218;48.326;14.304;2022-12-05T11:15:54;98549.00;;;4.20
8362;BMP180;4218;48.326;14.304;2022-12-05T11:20:51;98550.00;;;4.10
8362;BMP180;4218;48.326;14.304;2022-12-05T11:25:51;98550.00;;;4.00
8362;BMP180;4218;48.326;14.304;2022-12-05T11:33:31;98550.00;;;3.90
8362;BMP180;4218;48.326;14.304;2022-12-05T11:36:17;98559.00;;;4.00
8362;BMP180;4218;48.326;14.304;2022-12-05T11:38:44;98558.00;;;4.00
8362;BMP180;4218;48.326;14.304;2022-12-05T11:41:27;98547.00;;;3.90
8362;BMP180;4218;48.326;14.304;2022-12-05T11:46:49;98551.00;;;3.90
8362;BMP180;4218;48.326;14.304;2022-12-05T11:54:54;98574.00;;;4.00
8362;BMP180;4218;48.326;14.304;2022-12-05T11:57:44;98573.00;;;4.00
8362;BMP180;4218;48.326;14.304;2022-12-05T12:03:16;98569.00;;;3.80
8362;BMP180;4218;48.326;14.304;2022-12-05T12:06:15;98561.00;;;3.90
8362;BMP180;4218;48.326;14.304;2022-12-05T12:11:22;98561.00;;;4.00
8362;BMP180;4218;48.326;14.304;2022-12-05T12:17:11;98561.00;;;4.00
8362;BMP180;4218;48.326;14.304;2022-12-05T12:25:45;98544.00;;;4.00
8362;BMP180;4218;48.326;14.304;2022-12-05T12:31:57;98539.00;;;4.00
8362;BMP180;4218;48.326;14.304;2022-12-05T12:39:50;98548.00;;;3.80
8362;BMP180;4218;48.326;14.304;2022-12-05T12:42:39;98537.00;;;3.80
8362;BMP180;4218;48.326;14.304;2022-12-05T12:50:24;98527.00;;;3.80
8362;BMP180;4218;48.326;14.304;2022-12-05T12:55:51;98518.00;;;3.60
8362;BMP180;4218;48.326;14.304;2022-12-05T13:06:58;98535.00;;;3.80
8362;BMP180;4218;48.326;14.304;2022-12-05T13:09:35;98514.00;;;3.60
8362;BMP180;4218;48.326;14.304;2022-12-05T13:12:10;98511.00;;;3.60
8362;BMP180;4218;48.326;14.304;2022-12-05T13:14:38;98518.00;;;3.60
8362;BMP180;4218;48.326;14.304;2022-12-05T13:17:06;98529.00;;;3.50
8362;BMP180;4218;48.326;14.304;2022-12-05T13:19:44;98526.00;;;3.60
8362;BMP180;4218;48.326;14.304;2022-12-05T13:22:11;98526.00;;;3.60
8362;BMP180;4218;48.326;14.304;2022-12-05T13:24:37;98522.00;;;3.50
8362;BMP180;4218;48.326;14.304;2022-12-05T13:27:08;98534.00;;;3.50
8362;BMP180;4218;48.326;14.304;2022-12-05T13:29:47;98538.00;;;3.40
8362;BMP180;4218;48.326;14.304;2022-12-05T13:32:31;98549.00;;;3.50
8362;BMP180;4218;48.326;14.304;2022-12-05T13:35:09;98541.00;;;3.50
8362;BMP180;4218;48.326;14.304;2022-12-05T13:37:35;98560.00;;;3.50
8362;BMP180;4218;48.326;14.304;2022-12-05T13:40:36;98542.00;;;3.50
8362;BMP180;4218;48.326;14.304;2022-12-05T13:43:25;98541.00;;;3.50
8362;BMP180;4218;48.326;14.304;2022-12-05T13:46:04;98552.00;;;3.60
8362;BMP180;4218;48.326;14.304;2022-12-05T13:48:33;98561.00;;;3.60
8362;BMP180;4218;48.326;14.304;2022-12-05T13:53:40;98569.00;;;3.50
8362;BMP180;4218;48.326;14.304;2022-12-05T13:58:57;98551.00;;;3.60
8362;BMP180;4218;48.326;14.304;2022-12-05T14:03:58;98575.00;;;3.50
8362;BMP180;4218;48.326;14.304;2022-12-05T14:17:20;98565.00;;;3.50
8362;BMP180;4218;48.326;14.304;2022-12-05T14:20:05;98563.00;;;3.50
8362;BMP180;4218;48.326;14.304;2022-12-05T14:22:52;98564.00;;;3.40
8362;BMP180;4218;48.326;14.304;2022-12-05T14:25:40;98570.00;;;3.40
8362;BMP180;4218;48.326;14.304;2022-12-05T14:33:42;98568.00;;;3.40
8362;BMP180;4218;48.326;14.304;2022-12-05T14:36:15;98561.00;;;3.40
8362;BMP180;4218;48.326;14.304;2022-12-05T14:38:41;98569.00;;;3.30
8362;BMP180;4218;48.326;14.304;2022-12-05T14:41:21;98555.00;;;3.40
8362;BMP180;4218;48.326;14.304;2022-12-05T14:43:51;98552.00;;;3.40
8362;BMP180;4218;48.326;14.304;2022-12-05T14:46:24;98549.00;;;3.40
8362;BMP180;4218;48.326;14.304;2022-12-05T14:48:51;98537.00;;;3.50
8362;BMP180;4218;48.326;14.304;2022-12-05T14:54:05;98550.00;;;3.60
8362;BMP180;4218;48.326;14.304;2022-12-05T14:56:33;98546.00;;;3.60
8362;BMP180;4218;48.326;14.304;2022-12-05T15:01:47;98551.00;;;3.60
8362;BMP180;4218;48.326;14.304;2022-12-05T15:04:18;98535.00;;;3.60
8362;BMP180;4218;48.326;14.304;2022-12-05T15:07:08;98539.00;;;3.50
8362;BMP180;4218;48.326;14.304;2022-12-05T15:09:56;98530.00;;;3.50
8362;BMP180;4218;48.326;14.304;2022-12-05T15:12:50;98535.00;;;3.50
8362;BMP180;4218;48.326;14.304;2022-12-05T15:15:18;98545.00;;;3.50
